Markdale, Canada
Current Conditions -  °F | °C
As of 12:37 AM on Thursday 23 Oct 2014 (Local Time) from CYBN Reporting Station
Clear Clear  
Wind Chill: 36°   Ceiling: Unl
Heat Index: 36°   Visibility: 4mi
Dew Point: 36°   Wind: 0mph
Humidity: 100%   Direction: NA
Pressure: 30.23"   Gusts: NA
Location:  44.32°N, 80.65°W
Report Text: CYBN 230437Z AUTO 00000KT 4SM CLR 02/02 A3023
Loading
Personal Weather Stations






























Interactive Weather Map
Tropical Storm Tracking
New forecast layout! Learn more

10-Day Weather Forecast

Advertisements
Track Severe Weather on mobile